Time;durP1;ratioP1;P1;durP2;ratioP2;P2;SDS_P1;SDS_P2;PMS_P1;PMS_P2;Temp;Humidity;BMP_temperature;BMP_pressure;BME280_temperature;BME280_humidity;BME280_pressure;Samples;Min_cycle;Max_cycle;Signal;HPM_P1;HPM_P2
2021/01/19 09:25:23;;;;;;;1.52;1.10;;;19.00;38.10;;;22.47;26.32;100109.16;6305180;22;20093;-82
2021/01/19 09:28:02;;;;;;;2.70;1.15;;;19.00;38.00;;;22.49;26.18;100110.75;6280140;22;20098;-83
2021/01/19 09:30:34;;;;;;;2.30;1.20;;;19.00;38.00;;;22.55;26.41;100098.75;6280003;22;20337;-82
2021/01/19 09:33:03;;;;;;;4.22;1.67;;;19.00;38.10;;;22.54;26.26;100091.75;6282146;22;20337;-82
2021/01/19 09:35:29;;;;;;;3.90;2.13;;;19.00;38.20;;;22.57;26.34;100092.34;6279806;22;20068;-82
2021/01/19 09:37:55;;;;;;;3.10;1.20;;;19.00;38.20;;;22.63;26.26;100095.47;6305798;22;20015;-82
2021/01/19 09:40:35;;;;;;;3.78;1.23;;;19.00;38.20;;;22.62;26.32;100088.44;6305067;22;20011;-82
2021/01/19 09:43:13;;;;;;;1.80;1.20;;;19.00;38.30;;;22.63;26.15;100075.00;6280141;22;20021;-82
2021/01/19 09:45:39;;;;;;;2.95;1.13;;;19.00;38.30;;;22.67;26.27;100088.91;6280083;22;20147;-82
2021/01/19 09:48:08;;;;;;;3.10;1.25;;;19.00;38.30;;;22.63;26.38;100063.50;6279936;22;20007;-82
2021/01/19 09:50:34;;;;;;;5.13;1.40;;;19.00;38.30;;;22.68;26.27;100072.78;6280368;22;20007;-83
2021/01/19 09:52:59;;;;;;;3.30;1.10;;;19.00;38.30;;;22.71;26.37;100066.38;6307514;22;20077;-83
2021/01/19 09:55:30;;;;;;;1.67;1.10;;;19.00;38.40;;;22.68;26.50;100058.63;6279828;22;20007;-82
2021/01/19 09:58:02;;;;;;;5.32;1.30;;;19.10;38.40;;;22.69;26.28;100055.84;6279879;22;20022;-83
2021/01/19 10:00:37;;;;;;;1.45;1.05;;;19.10;38.40;;;22.72;26.41;100050.28;6305671;22;20018;-83
2021/01/19 10:03:15;;;;;;;2.22;1.05;;;19.10;38.40;;;22.71;26.53;100048.56;6280634;22;20429;-84
2021/01/19 10:05:44;;;;;;;4.90;1.08;;;19.10;38.40;;;22.73;26.44;100040.44;6280184;22;20057;-84
2021/01/19 10:08:11;;;;;;;1.95;1.10;;;19.10;39.00;;;22.72;26.35;100030.75;6279804;22;20014;-84
2021/01/19 10:10:40;;;;;;;6.03;1.30;;;19.10;38.40;;;22.71;26.27;100021.09;6254189;22;20090;-84
2021/01/19 10:13:07;;;;;;;2.75;0.90;;;19.10;38.50;;;22.75;26.35;100017.19;6279620;22;20054;-83
2021/01/19 10:15:35;;;;;;;1.42;1.00;;;19.10;38.50;;;22.70;26.27;100006.91;6279871;22;20007;-81
2021/01/19 10:18:01;;;;;;;1.80;1.15;;;19.10;38.50;;;22.76;26.46;100019.72;6305630;22;20008;-84
2021/01/19 10:20:37;;;;;;;1.85;1.10;;;19.10;38.50;;;22.73;26.34;100003.13;6305545;22;20007;-83
2021/01/19 10:23:05;;;;;;;2.00;1.20;;;19.10;38.50;;;22.76;26.42;99995.72;6280425;22;20011;-83
2021/01/19 10:25:36;;;;;;;1.73;1.27;;;19.10;38.50;;;22.70;26.42;99982.94;6305476;22;20056;-84
2021/01/19 10:28:05;;;;;;;3.25;1.10;;;19.10;38.40;;;22.76;26.44;99981.56;6280245;22;20080;-84
2021/01/19 10:30:36;;;;;;;2.58;1.20;;;19.10;38.40;;;22.75;26.48;99979.88;6279656;22;20476;-84
2021/01/19 10:33:03;;;;;;;4.78;1.30;;;19.10;38.40;;;22.74;26.40;99971.03;6278703;22;20019;-83
2021/01/19 10:35:35;;;;;;;4.43;1.33;;;19.10;38.50;;;22.75;26.36;99975.41;6279906;22;20302;-84
2021/01/19 10:38:07;;;;;;;3.60;1.60;;;19.10;38.50;;;22.76;26.21;99963.75;6279628;22;20021;-83
2021/01/19 10:40:35;;;;;;;2.38;1.40;;;19.10;38.50;;;22.68;26.29;99938.72;6305359;22;20015;-83
2021/01/19 10:43:08;;;;;;;3.10;1.42;;;19.00;38.50;;;22.72;26.47;99949.00;6279528;22;20153;-85
2021/01/19 10:45:34;;;;;;;1.95;1.20;;;19.00;38.60;;;22.73;26.41;99948.00;6280087;22;20096;-80
2021/01/19 10:48:01;;;;;;;3.28;1.13;;;19.00;38.50;;;22.75;26.29;99942.56;6305353;22;20015;-84
2021/01/19 10:50:33;;;;;;;3.17;1.40;;;19.00;38.50;;;22.75;26.35;99953.22;6305278;22;20007;-83
2021/01/19 10:53:05;;;;;;;;;;;19.00;38.50;;;22.84;26.13;99933.78;6280057;22;20080;-81
2021/01/19 10:55:33;;;;;;;2.63;1.27;;;19.00;39.00;;;22.75;26.23;99930.09;6306127;22;19911;-81
2021/01/19 10:58:02;;;;;;;1.83;1.27;;;19.00;38.60;;;22.72;26.38;99929.47;6279332;22;20015;-81
2021/01/19 11:00:29;;;;;;;2.50;1.38;;;19.00;38.70;;;22.72;26.39;99925.03;6279466;22;20035;-83
2021/01/19 11:02:55;;;;;;;4.65;1.20;;;19.00;38.60;;;22.69;26.50;99919.09;6254204;22;20011;-84
2021/01/19 11:05:23;;;;;;;8.85;1.70;;;19.00;38.60;;;22.73;26.52;99923.19;6279900;22;20004;-83
2021/01/19 11:07:51;;;;;;;5.43;1.65;;;19.00;38.70;;;22.67;26.33;99908.56;6279746;22;20062;-81
2021/01/19 11:10:20;;;;;;;1.90;1.30;;;18.90;38.60;;;22.68;26.41;99907.59;6279845;22;20017;-83
2021/01/19 11:12:46;;;;;;;3.53;1.38;;;18.90;38.70;;;22.68;26.47;99904.91;6279380;22;20057;-82
2021/01/19 11:15:14;;;;;;;2.03;1.23;;;18.90;38.70;;;22.67;26.56;99905.03;6305675;22;20011;-83
2021/01/19 11:17:40;;;;;;;3.15;1.45;;;18.90;38.70;;;22.68;26.50;99907.59;6279402;22;20016;-83
2021/01/19 11:20:09;;;;;;;4.72;1.70;;;18.90;38.70;;;22.66;26.15;99895.38;6253829;22;20015;-82
2021/01/19 11:22:36;;;;;;;3.80;1.40;;;18.90;38.70;;;22.67;26.45;99886.41;6279356;22;20317;-83
2021/01/19 11:25:04;;;;;;;2.03;1.10;;;18.90;38.70;;;22.64;26.48;99882.19;6305697;22;20090;-83
2021/01/19 11:27:29;;;;;;;1.70;1.27;;;18.90;38.70;;;22.66;26.51;99879.41;6279395;22;20030;-82
2021/01/19 11:29:56;;;;;;;1.33;1.17;;;18.90;38.80;;;22.68;26.23;99872.94;6306870;22;20421;-83
2021/01/19 11:32:22;;;;;;;2.35;1.20;;;18.90;38.70;;;22.67;26.33;99868.59;6305335;22;20019;-83
2021/01/19 11:34:48;;;;;;;4.22;1.40;;;18.90;38.70;;;22.66;26.46;99855.41;6304932;22;20015;-83
2021/01/19 11:37:14;;;;;;;3.20;1.10;;;19.00;38.80;;;22.66;26.38;99858.06;6305325;22;20015;-83
2021/01/19 11:39:41;;;;;;;1.92;1.20;;;18.90;38.70;;;22.69;26.47;99855.16;6253563;22;20009;-83
2021/01/19 11:42:08;;;;;;;3.97;1.50;;;18.90;38.70;;;22.66;26.35;99848.25;6305232;22;20019;-82
2021/01/19 11:44:34;;;;;;;4.53;1.33;;;19.00;38.70;;;22.67;26.50;99843.75;6279013;22;20015;-83
2021/01/19 11:47:00;;;;;;;3.63;1.30;;;19.00;38.70;;;22.69;26.49;99844.50;6279464;22;20413;-82
2021/01/19 11:49:26;;;;;;;2.42;1.35;;;19.00;38.70;;;22.67;26.51;99841.97;6279257;22;20011;-83
2021/01/19 11:51:52;;;;;;;1.70;1.08;;;18.90;38.70;;;22.67;26.48;99831.31;6279136;22;20441;-83
2021/01/19 11:54:18;;;;;;;1.90;1.20;;;18.90;38.80;;;22.68;26.41;99832.97;6279282;22;20003;-83
2021/01/19 11:56:49;;;;;;;3.42;1.20;;;18.90;38.70;;;22.65;26.38;99821.72;6279775;22;20043;-82
2021/01/19 11:59:16;;;;;;;2.55;1.42;;;18.90;38.80;;;22.64;26.59;99815.56;6279215;22;20007;-82
2021/01/19 12:01:42;;;;;;;3.08;1.05;;;18.90;38.70;;;22.68;26.47;99821.47;6279319;22;20015;-82
2021/01/19 12:04:10;;;;;;;1.92;1.40;;;18.90;38.70;;;22.67;26.56;99812.66;6306765;22;20494;-82
2021/01/19 12:06:41;;;;;;;4.35;1.30;;;18.90;38.70;;;22.65;26.61;99806.59;6253976;22;20098;-82
2021/01/19 12:09:09;;;;;;;4.82;1.40;;;18.90;38.70;;;22.66;26.46;99807.44;6278973;22;20094;-82
2021/01/19 12:11:51;;;;;;;4.22;1.58;;;18.90;38.50;;;22.67;26.56;99810.00;6279021;22;20038;-82
2021/01/19 12:14:17;;;;;;;2.92;1.17;;;19.00;38.70;;;22.69;26.42;99792.03;6279987;22;20094;-83
2021/01/19 12:16:43;;;;;;;3.17;1.48;;;19.00;38.70;;;22.68;26.58;99794.84;6279077;22;20067;-82
2021/01/19 12:19:10;;;;;;;2.72;1.40;;;19.00;38.70;;;22.68;26.58;99787.69;6278795;22;20161;-82
2021/01/19 12:21:50;;;;;;;3.67;1.70;;;19.00;38.70;;;22.69;26.56;99781.38;6279279;22;20425;-82
2021/01/19 12:24:17;;;;;;;5.72;1.30;;;19.00;38.70;;;22.67;26.60;99777.16;6305321;22;20049;-82
2021/01/19 12:26:51;;;;;;;4.45;1.63;;;19.00;38.70;;;22.66;26.51;99776.31;6278931;22;20467;-83
2021/01/19 12:29:18;;;;;;;1.50;1.20;;;19.00;38.70;;;22.69;26.50;99781.38;6304815;22;20008;-82
2021/01/19 12:31:45;;;;;;;4.35;1.15;;;19.00;38.70;;;22.68;26.55;99762.84;6304619;22;20047;-83
2021/01/19 12:34:11;;;;;;;4.65;1.55;;;19.00;38.70;;;22.73;26.47;99763.31;6278784;22;20068;-83
2021/01/19 12:36:37;;;;;;;3.65;1.45;;;19.00;38.70;;;22.69;26.51;99754.72;6278760;22;20011;-83
2021/01/19 12:39:04;;;;;;;3.47;1.60;;;19.00;38.70;;;22.68;26.38;99755.69;6298670;22;20443;-83
2021/01/19 12:41:33;;;;;;;5.40;1.20;;;19.00;38.60;;;22.72;26.45;99762.47;6278831;22;20315;-82
2021/01/19 12:44:00;;;;;;;4.57;1.48;;;19.00;38.70;;;22.68;26.35;99744.22;6279688;22;20023;-83
2021/01/19 12:46:25;;;;;;;2.80;1.20;;;19.00;38.70;;;22.71;26.47;99741.28;6278658;22;20015;-83
2021/01/19 12:48:51;;;;;;;6.95;1.60;;;19.00;38.70;;;22.73;26.46;99748.16;6279645;22;20008;-83
2021/01/19 12:51:19;;;;;;;6.75;1.55;;;19.00;38.70;;;22.72;26.60;99740.28;6278354;22;20068;-83
2021/01/19 12:53:46;;;;;;;3.85;1.30;;;19.00;38.60;;;22.73;26.54;99739.31;6304163;22;20011;-83
2021/01/19 12:56:13;;;;;;;1.63;1.00;;;19.00;38.60;;;22.75;26.55;99748.03;6305121;22;20322;-82
2021/01/19 12:58:40;;;;;;;5.18;1.33;;;19.00;38.60;;;22.74;26.46;99735.69;6280752;22;20441;-83
2021/01/19 13:01:07;;;;;;;4.05;1.40;;;19.00;38.70;;;22.72;26.43;99730.50;6279578;22;20316;-83
2021/01/19 13:03:33;;;;;;;1.40;1.20;;;19.00;38.70;;;22.72;26.68;99730.50;6305729;22;20011;-83
2021/01/19 13:06:00;;;;;;;4.15;2.10;;;19.00;38.70;;;22.70;26.33;99724.47;6305368;22;20011;-82
2021/01/19 13:08:26;;;;;;;3.13;1.20;;;19.00;38.70;;;22.70;26.56;99729.78;6279879;22;20429;-82
2021/01/19 13:10:52;;;;;;;3.88;1.27;;;19.00;38.70;;;22.69;26.49;99716.59;6280029;22;20007;-82
2021/01/19 13:13:17;;;;;;;4.35;1.50;;;19.00;38.70;;;22.69;26.59;99725.44;6305615;22;20011;-82
2021/01/19 13:15:43;;;;;;;3.55;1.48;;;19.00;38.70;;;22.75;26.55;99724.03;6305746;22;20329;-81
2021/01/19 13:18:10;;;;;;;3.35;1.50;;;19.00;38.70;;;22.73;26.54;99718.84;6279954;22;20015;-82
2021/01/19 13:20:37;;;;;;;2.30;1.38;;;19.00;38.70;;;22.70;26.55;99711.13;6307462;22;20011;-82
2021/01/19 13:23:04;;;;;;;2.55;1.23;;;19.00;38.70;;;22.70;26.53;99705.81;6280008;22;20038;-82
2021/01/19 13:25:29;;;;;;;4.53;1.40;;;19.00;38.80;;;22.69;26.62;99705.94;6305713;22;20011;-82
2021/01/19 13:27:55;;;;;;;2.63;1.38;;;19.00;38.70;;;22.73;26.48;99718.00;6280413;22;20015;-83
2021/01/19 13:30:21;;;;;;;2.72;1.35;;;19.00;38.80;;;22.71;26.45;99714.63;6280809;22;20011;-82
2021/01/19 13:32:47;;;;;;;1.30;1.20;;;19.00;38.80;;;22.73;26.45;99718.84;6279918;22;20057;-83
2021/01/19 13:35:13;;;;;;;3.97;1.40;;;19.00;38.80;;;22.73;26.62;99720.66;6280243;22;20015;-82
2021/01/19 13:37:41;;;;;;;2.70;1.15;;;19.00;38.80;;;22.70;26.43;99713.81;6254113;22;20318;-82
2021/01/19 13:40:08;;;;;;;4.22;1.33;;;19.00;38.80;;;22.72;26.36;99719.84;6279898;22;20329;-82
2021/01/19 13:42:34;;;;;;;4.55;1.45;;;19.00;38.80;;;22.69;26.65;99708.59;6305692;22;20085;-82
2021/01/19 13:45:00;;;;;;;4.35;1.25;;;19.00;38.90;;;22.69;26.55;99706.78;6280351;22;20451;-82
2021/01/19 13:47:25;;;;;;;3.45;1.40;;;19.00;38.80;;;22.70;26.77;99713.81;6279889;22;20019;-82
2021/01/19 13:49:51;;;;;;;2.88;1.70;;;19.00;38.90;;;22.69;26.61;99709.44;6280184;22;20052;-82
2021/01/19 13:52:17;;;;;;;3.83;1.33;;;19.00;38.80;;;22.70;26.59;99712.94;6280116;22;20045;-81
2021/01/19 13:54:43;;;;;;;2.92;1.35;;;19.00;38.80;;;22.66;26.64;99704.38;6279953;22;20026;-81
2021/01/19 13:57:09;;;;;;;2.72;1.20;;;19.00;38.90;;;22.68;26.68;99702.41;6279650;22;20441;-82
2021/01/19 13:59:34;;;;;;;3.67;1.40;;;19.00;38.90;;;22.70;26.51;99707.59;6279886;22;20061;-82
2021/01/19 14:02:00;;;;;;;3.00;1.35;;;19.00;38.80;;;22.72;26.63;99713.63;6280364;22;20015;-82
2021/01/19 14:04:26;;;;;;;3.88;1.75;;;18.90;38.90;;;22.68;26.47;99713.06;6305685;22;20011;-82
2021/01/19 14:06:51;;;;;;;2.05;1.10;;;19.00;38.90;;;22.69;26.68;99714.75;6305623;22;20015;-82
2021/01/19 14:09:17;;;;;;;5.03;1.10;;;19.00;38.90;;;22.72;26.61;99718.97;6279559;22;20011;-82
2021/01/19 14:11:43;;;;;;;3.00;1.20;;;19.00;38.90;;;22.66;26.52;99706.19;6279871;22;20103;-82
2021/01/19 14:14:19;;;;;;;3.75;1.40;;;19.00;38.90;;;22.69;26.46;99705.94;6279543;22;20062;-82
2021/01/19 14:16:47;;;;;;;4.80;1.70;;;19.00;38.80;;;22.72;26.64;99718.97;6281299;22;20019;-82
2021/01/19 14:19:13;;;;;;;3.08;1.50;;;19.00;38.90;;;22.70;26.72;99713.81;6279633;22;20019;-81
2021/01/19 14:21:40;;;;;;;2.33;1.02;;;19.00;38.90;;;22.67;26.45;99700.75;6279953;22;20022;-81
2021/01/19 14:24:06;;;;;;;1.90;1.10;;;19.00;38.90;;;22.67;26.64;99714.06;6279912;22;20090;-82
2021/01/19 14:26:35;;;;;;;2.90;1.13;;;18.90;38.90;;;22.66;26.51;99709.69;6254081;22;20007;-82
2021/01/19 14:29:03;;;;;;;3.25;1.50;;;18.90;38.90;;;22.65;26.70;99707.16;6279541;22;20015;-82
2021/01/19 14:31:37;;;;;;;1.70;1.20;;;18.90;38.90;;;22.65;26.67;99710.66;6305526;22;20015;-82
2021/01/19 14:34:04;;;;;;;2.28;1.10;;;18.90;38.90;;;22.64;26.68;99714.31;6279837;22;20078;-82
2021/01/19 14:36:31;;;;;;;1.75;1.00;;;18.90;38.90;;;22.66;26.73;99711.53;6305562;22;20084;-82
2021/01/19 14:38:57;;;;;;;2.22;1.33;;;19.00;38.90;;;22.68;26.69;99709.56;6305310;22;20501;-82
2021/01/19 14:41:25;;;;;;;3.13;1.25;;;18.90;38.90;;;22.63;26.77;99698.47;6299966;22;20015;-82
2021/01/19 14:43:51;;;;;;;2.80;1.50;;;19.00;39.00;;;22.66;26.68;99707.03;6305430;22;20042;-82
2021/01/19 14:46:24;;;;;;;3.88;1.27;;;18.90;38.90;;;22.66;26.67;99714.19;6279297;22;20065;-82
2021/01/19 14:48:52;;;;;;;2.90;1.35;;;18.90;38.90;;;22.66;26.64;99706.19;6253708;22;20456;-83
2021/01/19 14:51:23;;;;;;;1.48;1.00;;;19.00;39.00;;;22.66;26.58;99709.69;6306684;22;20016;-82
2021/01/19 14:53:50;;;;;;;6.57;1.67;;;19.00;39.00;;;22.68;26.65;99713.06;6305762;22;20007;-82
2021/01/19 14:56:39;;;;;;;1.85;1.10;;;19.00;39.00;;;22.66;26.61;99711.53;6254277;22;20012;-82
2021/01/19 14:59:06;;;;;;;2.45;1.10;;;19.00;38.90;;;22.68;26.62;99715.72;6280239;22;20011;-83
2021/01/19 15:01:44;;;;;;;2.67;1.02;;;19.00;38.90;;;22.69;26.72;99727.25;6279702;22;20411;-82
2021/01/19 15:04:13;;;;;;;2.97;1.17;;;19.00;38.80;;;22.74;26.62;99730.34;6280325;22;20018;-83
2021/01/19 15:06:51;;;;;;;3.15;1.48;;;19.00;38.80;;;22.71;26.70;99717.31;6305226;22;20014;-82
2021/01/19 15:09:41;;;;;;;4.15;1.27;;;19.00;38.80;;;22.76;26.51;99731.91;6279562;22;20007;-82
2021/01/19 15:12:11;;;;;;;4.38;1.33;;;19.10;38.80;;;22.73;26.44;99729.50;6304695;22;20011;-82
2021/01/19 15:14:45;;;;;;;1.93;0.87;;;19.10;38.80;;;22.76;26.53;99723.91;6280597;22;20396;-82
2021/01/19 15:17:11;;;;;;;3.20;1.20;;;19.10;38.90;;;22.78;26.70;99734.44;6280141;22;20086;-82
2021/01/19 15:19:37;;;;;;;1.60;1.05;;;19.10;38.80;;;22.80;26.62;99735.13;6278656;22;20014;-82
2021/01/19 15:22:09;;;;;;;2.58;1.20;;;19.10;38.80;;;22.78;26.51;99734.44;6279519;22;20018;-80
2021/01/19 15:24:37;;;;;;;2.33;1.30;;;19.10;38.80;;;22.76;26.63;99739.06;6305454;22;20045;-82
2021/01/19 15:27:03;;;;;;;3.00;1.50;;;19.10;38.90;;;22.80;26.51;99737.78;6307045;22;20050;-82
2021/01/19 15:29:29;;;;;;;2.95;1.40;;;19.20;38.90;;;22.82;26.77;99740.34;6305123;22;20094;-81
2021/01/19 15:31:56;;;;;;;2.25;1.30;;;19.20;38.80;;;22.81;26.72;99736.00;6305986;22;20015;-82
2021/01/19 15:34:23;;;;;;;2.17;1.25;;;19.20;38.80;;;22.80;26.67;99740.47;6254006;22;20007;-81
2021/01/19 15:36:50;;;;;;;2.20;1.13;;;19.20;38.80;;;22.81;26.80;99731.50;6279721;22;20012;-81
2021/01/19 15:39:16;;;;;;;1.95;1.02;;;19.20;38.80;;;22.83;26.71;99748.19;6253772;22;20014;-81
2021/01/19 15:41:42;;;;;;;4.90;1.10;;;19.10;38.80;;;22.81;26.69;99744.81;6305486;22;20015;-82
2021/01/19 15:44:08;;;;;;;3.70;1.15;;;19.20;38.90;;;22.82;26.52;99745.66;6279391;22;20057;-81
2021/01/19 15:46:37;;;;;;;3.05;1.42;;;19.10;39.40;;;22.82;26.73;99746.53;6305238;22;20352;-81
2021/01/19 15:49:06;;;;;;;3.85;1.58;;;19.10;38.90;;;22.81;26.55;99749.31;6279219;22;20041;-81
2021/01/19 15:51:34;;;;;;;2.85;1.30;;;19.10;39.00;;;22.84;26.81;99751.72;6305939;22;20421;-81
2021/01/19 15:54:01;;;;;;;3.67;1.10;;;19.10;39.00;;;22.83;26.53;99748.19;6279780;22;20432;-82
2021/01/19 15:56:35;;;;;;;3.00;1.30;;;19.10;39.00;;;22.82;26.70;99746.53;6304974;22;20061;-82
2021/01/19 15:59:06;;;;;;;5.22;1.77;;;19.10;38.90;;;22.80;26.74;99744.97;6305784;22;20429;-81
2021/01/19 16:01:33;;;;;;;1.65;1.00;;;19.20;39.00;;;22.84;26.72;99751.72;6279464;22;20009;-81
2021/01/19 16:04:00;;;;;;;2.42;1.20;;;19.20;38.90;;;22.84;26.78;99751.72;6253798;22;20027;-81
2021/01/19 16:06:27;;;;;;;3.35;1.40;;;19.20;38.90;;;22.83;26.70;99753.53;6305096;22;20011;-81
2021/01/19 16:08:56;;;;;;;1.42;1.33;;;19.20;39.00;;;22.85;26.75;99753.41;6279516;22;20329;-81
2021/01/19 16:11:24;;;;;;;4.25;1.35;;;19.20;38.90;;;22.86;26.84;99747.09;6279274;22;20046;-81
2021/01/19 16:13:51;;;;;;;3.67;1.55;;;19.20;38.90;;;22.87;26.70;99746.97;6304484;22;20480;-81
2021/01/19 16:16:28;;;;;;;3.10;1.25;;;19.20;38.80;;;22.88;26.60;99745.13;6304474;22;20015;-81
2021/01/19 16:18:55;;;;;;;3.30;1.20;;;19.20;38.80;;;22.91;26.71;99753.69;6279074;22;20019;-82
2021/01/19 16:21:23;;;;;;;2.22;1.10;;;19.30;38.90;;;22.89;26.54;99747.66;6279468;22;20017;-82
2021/01/19 16:23:50;;;;;;;2.05;1.27;;;19.20;38.80;;;22.91;26.76;99751.03;6279207;22;20014;-82
2021/01/19 16:26:34;;;;;;;2.70;1.08;;;19.30;38.90;;;22.92;26.75;99755.41;6278788;22;20018;-82
2021/01/19 16:29:02;;;;;;;2.50;1.15;;;19.30;38.90;;;22.90;26.70;99751.16;6279480;22;20012;-82
2021/01/19 16:31:41;;;;;;;2.13;1.20;;;19.30;38.90;;;22.89;26.76;99744.16;6304998;22;20377;-81
2021/01/19 16:34:07;;;;;;;2.00;1.30;;;19.30;39.00;;;22.90;26.59;99751.16;6279022;22;20448;-81
2021/01/19 16:36:39;;;;;;;3.38;1.48;;;19.20;39.00;;;22.90;26.83;99751.16;6306289;22;20008;-81
2021/01/19 16:39:09;;;;;;;6.25;1.48;;;19.20;39.00;;;22.87;26.87;99740.78;6279047;22;20022;-81
2021/01/19 16:41:35;;;;;;;3.15;1.33;;;19.20;39.00;;;22.87;26.79;99748.75;6279193;22;20019;-82
2021/01/19 16:44:01;;;;;;;2.17;1.35;;;19.20;39.10;;;22.86;26.68;99755.09;6278941;22;20008;-81
2021/01/19 16:46:27;;;;;;;3.08;1.10;;;19.10;39.10;;;22.86;26.87;99747.09;6279192;22;20018;-81
2021/01/19 16:48:57;;;;;;;2.75;1.02;;;19.10;39.00;;;22.87;26.75;99754.09;6278920;22;20015;-82
2021/01/19 16:51:33;;;;;;;3.42;1.50;;;19.10;39.00;;;22.86;26.73;99755.09;6304740;22;20011;-82
2021/01/19 16:53:59;;;;;;;4.35;1.38;;;19.10;39.10;;;22.85;26.59;99756.06;6305177;22;20451;-81
2021/01/19 16:56:33;;;;;;;2.00;1.10;;;19.10;39.10;;;22.84;26.88;99757.06;6278467;22;20099;-82
2021/01/19 16:58:59;;;;;;;2.65;1.13;;;19.10;39.10;;;22.86;26.77;99753.25;6306308;22;20015;-82
2021/01/19 17:01:26;;;;;;;2.13;1.10;;;19.10;39.00;;;22.85;26.68;99762.22;6278813;22;20338;-82
2021/01/19 17:03:52;;;;;;;3.55;1.35;;;19.10;39.10;;;22.81;26.79;99759.97;6304692;22;20972;-82
2021/01/19 17:06:22;;;;;;;2.25;0.98;;;19.10;39.10;;;22.79;26.85;99760.13;6303828;22;20037;-82
2021/01/19 17:08:48;;;;;;;2.08;0.95;;;19.10;39.10;;;22.81;26.83;99759.97;6279000;22;20003;-82
2021/01/19 17:11:14;;;;;;;2.75;1.40;;;19.10;39.10;;;22.82;26.75;99753.66;6301101;22;20022;-82
2021/01/19 17:13:40;;;;;;;3.33;1.20;;;19.10;39.20;;;22.78;26.72;99747.75;6304500;22;20050;-82
2021/01/19 17:16:06;;;;;;;2.90;1.30;;;19.10;39.10;;;22.81;26.69;99760.81;6278199;22;20064;-82
2021/01/19 17:18:34;;;;;;;2.10;1.25;;;19.10;39.10;;;22.81;26.73;99757.31;6279038;22;20018;-82
2021/01/19 17:21:00;;;;;;;4.45;1.30;;;19.10;39.10;;;22.82;26.59;99761.66;6278875;22;20019;-82
2021/01/19 17:23:27;;;;;;;1.30;1.20;;;19.10;39.10;;;22.78;26.71;99749.59;6278953;22;20023;-82
2021/01/19 17:25:56;;;;;;;6.53;1.35;;;19.10;39.10;;;22.78;26.72;99757.59;6304364;22;20011;-82
2021/01/19 17:28:23;;;;;;;1.92;1.20;;;19.10;39.10;;;22.79;26.68;99759.25;6278425;22;20082;-82
2021/01/19 17:30:50;;;;;;;1.63;1.00;;;19.10;39.10;;;22.76;26.76;99747.88;6304368;22;20015;-82
2021/01/19 17:33:26;;;;;;;1.90;1.00;;;19.10;39.10;;;22.77;26.68;99756.75;6304146;22;20034;-82
2021/01/19 17:35:53;;;;;;;2.25;1.13;;;19.10;39.10;;;22.79;26.75;99749.44;6279122;22;20329;-82
2021/01/19 17:38:19;;;;;;;1.52;1.10;;;19.10;39.10;;;22.79;26.64;99749.44;6253230;22;20023;-82
2021/01/19 17:40:47;;;;;;;2.13;1.10;;;19.10;39.10;;;22.79;26.64;99744.13;6278511;22;20011;-82
2021/01/19 17:43:12;;;;;;;2.65;1.20;;;19.10;39.10;;;22.78;26.79;99758.41;6307448;22;20009;-82
2021/01/19 17:45:40;;;;;;;2.80;1.20;;;19.00;39.00;;;22.75;26.78;99748.88;6308223;22;20011;-82
2021/01/19 17:48:07;;;;;;;3.10;1.30;;;19.00;39.00;;;22.76;26.69;99755.88;6305652;22;20011;-82
2021/01/19 17:50:35;;;;;;;3.03;1.27;;;19.00;39.00;;;22.77;26.81;99759.41;6280107;22;20018;-82
2021/01/19 17:53:02;;;;;;;3.20;1.55;;;19.00;39.00;;;22.76;26.65;99750.56;6307395;22;20078;-82
2021/01/19 17:55:28;;;;;;;2.58;1.23;;;19.00;39.00;;;22.78;26.84;99752.25;6279986;22;20019;-82
2021/01/19 17:57:53;;;;;;;2.40;1.27;;;19.00;39.00;;;22.80;26.70;99750.28;6305727;22;20011;-82
2021/01/19 18:00:20;;;;;;;1.50;0.90;;;19.00;39.00;;;22.72;26.66;99738.47;6308425;22;20084;-82
2021/01/19 18:02:50;;;;;;;1.70;1.13;;;19.00;39.00;;;22.79;26.87;99745.91;6307846;22;20017;-82
2021/01/19 18:05:16;;;;;;;3.08;1.15;;;19.00;39.10;;;22.78;26.62;99749.59;6305847;22;20472;-82
2021/01/19 18:07:51;;;;;;;2.05;1.30;;;19.10;39.10;;;22.78;26.82;99752.25;6305734;22;20018;-82
2021/01/19 18:10:18;;;;;;;3.88;1.60;;;19.00;39.10;;;22.78;26.71;99745.09;6280910;22;20019;-82
2021/01/19 18:12:44;;;;;;;1.55;1.10;;;19.10;39.00;;;22.76;26.64;99739.06;6306037;22;20380;-82
2021/01/19 18:15:11;;;;;;;2.50;1.20;;;19.00;39.00;;;22.80;26.91;99751.13;6305922;22;20022;-82
2021/01/19 18:17:37;;;;;;;1.63;1.20;;;19.10;39.10;;;22.75;26.80;99746.22;6307341;22;20018;-82
2021/01/19 18:20:03;;;;;;;3.45;1.30;;;19.00;39.00;;;22.76;26.85;99755.03;6305459;22;20385;-82
2021/01/19 18:22:29;;;;;;;3.95;0.82;;;19.00;39.10;;;22.75;26.89;99750.69;6280237;22;20008;-82
2021/01/19 18:24:55;;;;;;;1.35;0.80;;;19.00;39.00;;;22.71;26.68;99746.63;6305964;22;20454;-82
2021/01/19 18:27:20;;;;;;;1.67;1.10;;;19.00;39.00;;;22.76;26.84;99749.72;6279744;22;20428;-82
2021/01/19 18:29:46;;;;;;;2.78;1.00;;;19.00;39.00;;;22.75;26.75;99758.69;6307191;22;20509;-82
2021/01/19 18:32:12;;;;;;;2.08;1.20;;;19.00;39.10;;;22.73;26.85;99747.31;6254236;22;20467;-82
2021/01/19 18:34:38;;;;;;;1.80;1.23;;;19.00;39.10;;;22.73;26.70;99748.16;6305458;22;20451;-82
2021/01/19 18:37:07;;;;;;;4.22;1.42;;;19.00;39.10;;;22.71;26.82;99746.63;6305576;22;20023;-82
2021/01/19 18:39:38;;;;;;;1.42;1.30;;;19.00;39.10;;;22.73;26.86;99748.16;6305340;22;20011;-82
2021/01/19 18:42:14;;;;;;;;;;;19.00;39.10;;;22.84;26.53;99749.06;6280140;22;20209;-82
2021/01/19 18:44:42;;;;;;;1.77;1.10;;;19.00;39.00;;;22.75;26.65;99751.53;6279846;22;19911;-82
2021/01/19 18:47:08;;;;;;;1.90;1.10;;;19.10;39.00;;;22.73;26.77;99749.97;6280300;22;20010;-82
2021/01/19 18:49:34;;;;;;;1.85;1.33;;;19.00;39.00;;;22.75;26.69;99756.88;6305408;22;20452;-82
2021/01/19 18:52:03;;;;;;;1.60;1.10;;;19.00;39.60;;;22.75;26.75;99764.00;6305383;22;20007;-82
2021/01/19 18:54:29;;;;;;;3.97;1.30;;;19.00;39.10;;;22.77;26.76;99764.75;6279045;22;20007;-82
2021/01/19 18:56:56;;;;;;;2.38;1.13;;;19.00;39.10;;;22.74;26.74;99770.34;6253974;22;20094;-82
2021/01/19 18:59:22;;;;;;;3.65;1.48;;;19.00;39.10;;;22.75;26.83;99770.19;6279530;22;20413;-82
2021/01/19 19:01:48;;;;;;;1.67;1.17;;;19.10;39.20;;;22.74;26.77;99767.66;6307074;22;20082;-83
2021/01/19 19:04:15;;;;;;;3.08;1.23;;;19.00;39.10;;;22.78;26.77;99782.41;6306232;22;20011;-82
2021/01/19 19:06:43;;;;;;;4.95;1.02;;;19.10;39.20;;;22.73;26.77;99776.63;6305599;22;20011;-83
2021/01/19 19:09:10;;;;;;;1.35;1.00;;;19.00;39.10;;;22.74;26.87;99773.84;6280046;22;20018;-82
2021/01/19 19:11:37;;;;;;;2.28;1.10;;;19.00;39.10;;;22.74;26.97;99768.50;6305461;22;20011;-82
2021/01/19 19:14:06;;;;;;;2.05;1.45;;;19.00;39.10;;;22.70;26.92;99764.44;6279588;22;20384;-82
2021/01/19 19:16:45;;;;;;;2.80;1.30;;;19.00;39.30;;;22.73;27.00;99772.13;6280299;22;20070;-81
2021/01/19 19:19:14;;;;;;;2.72;1.20;;;19.00;39.20;;;22.68;26.81;99763.69;6305388;22;20014;-81
2021/01/19 19:21:55;;;;;;;2.28;1.23;;;19.00;39.20;;;22.73;26.77;99771.28;6279488;22;20060;-81
2021/01/19 19:24:21;;;;;;;3.88;1.50;;;19.00;39.10;;;22.77;26.79;99778.06;6305859;22;20011;-82
2021/01/19 19:26:47;;;;;;;1.48;1.20;;;19.00;39.10;;;22.74;26.65;99768.50;6279654;22;20011;-81
2021/01/19 19:29:14;;;;;;;2.33;1.15;;;19.00;39.20;;;22.73;26.81;99763.31;6279352;22;20053;-81
2021/01/19 19:31:48;;;;;;;4.15;1.13;;;19.00;39.10;;;22.69;26.80;99761.91;6305749;22;20143;-81
2021/01/19 19:34:14;;;;;;;1.70;1.20;;;19.00;39.20;;;22.72;26.86;99761.59;6280113;22;20014;-81
2021/01/19 19:36:39;;;;;;;2.28;1.20;;;19.00;39.20;;;22.69;26.92;99757.41;6305570;22;20019;-81
2021/01/19 19:39:05;;;;;;;2.67;1.20;;;19.00;39.20;;;22.70;26.79;99763.56;6304992;22;20012;-82
2021/01/19 19:41:32;;;;;;;1.67;1.30;;;19.00;39.30;;;22.69;26.96;99757.41;6305290;22;20042;-81
2021/01/19 19:43:59;;;;;;;2.92;1.00;;;19.00;39.30;;;22.62;27.01;99748.25;6279528;22;20505;-81
2021/01/19 19:46:26;;;;;;;2.30;1.10;;;19.00;39.30;;;22.67;26.82;99756.69;6305601;22;20014;-81
2021/01/19 19:48:53;;;;;;;1.17;1.08;;;18.90;39.30;;;22.66;27.00;99754.16;6305129;22;20015;-81